createdAt,value
2019-04-23T00:01:07.528Z,10.70
2019-04-23T00:03:34.422Z,10.70
2019-04-23T00:06:10.228Z,10.70
2019-04-23T00:08:44.783Z,10.60
2019-04-23T00:11:05.664Z,10.60
2019-04-23T00:16:18.675Z,10.60
2019-04-23T00:18:43.296Z,10.60
2019-04-23T00:21:34.577Z,10.60
2019-04-23T00:24:11.756Z,10.50
2019-04-23T00:26:36.629Z,10.50
2019-04-23T00:29:18.498Z,10.50
2019-04-23T00:31:41.310Z,10.50
2019-04-23T00:34:09.256Z,10.50
2019-04-23T00:36:37.832Z,10.40
2019-04-23T00:39:10.325Z,10.40
2019-04-23T00:44:15.076Z,10.20
2019-04-23T00:46:40.057Z,10.20
2019-04-23T00:51:51.673Z,10.10
2019-04-23T00:54:20.724Z,10.10
2019-04-23T00:59:24.513Z,10.20
2019-04-23T01:01:55.794Z,10.20
2019-04-23T01:04:19.001Z,10.20
2019-04-23T01:06:54.627Z,10.20
2019-04-23T01:09:22.716Z,10.20
2019-04-23T01:12:00.456Z,10.20
2019-04-23T01:14:31.542Z,10.10
2019-04-23T01:16:55.192Z,10.10
2019-04-23T01:19:44.452Z,10.10
2019-04-23T01:21:47.445Z,10.10
2019-04-23T01:24:30.691Z,10.00
2019-04-23T01:27:39.750Z,10.00
2019-04-23T01:30:08.451Z,10.00
2019-04-23T01:32:32.069Z,10.00
2019-04-23T01:35:12.824Z,10.10
2019-04-23T01:37:39.508Z,10.10
2019-04-23T01:40:09.724Z,10.10
2019-04-23T01:42:41.853Z,10.10
2019-04-23T01:45:15.417Z,10.10
2019-04-23T01:47:39.027Z,10.00
2019-04-23T01:50:13.761Z,10.00
2019-04-23T01:52:47.752Z,10.00
2019-04-23T01:55:19.892Z,10.00
2019-04-23T01:57:47.127Z,10.00
2019-04-23T02:00:18.752Z,9.90
2019-04-23T02:02:49.853Z,10.00
2019-04-23T02:05:26.027Z,9.90
2019-04-23T02:07:55.008Z,10.00
2019-04-23T02:10:29.515Z,9.90
2019-04-23T02:12:55.735Z,9.90
2019-04-23T02:15:23.087Z,9.90
2019-04-23T02:18:00.086Z,9.90
2019-04-23T02:25:50.531Z,9.80
2019-04-23T02:28:15.952Z,9.70
2019-04-23T02:33:34.426Z,9.60
2019-04-23T02:38:30.848Z,9.60
2019-04-23T02:41:04.770Z,9.50
2019-04-23T02:48:34.954Z,9.50
2019-04-23T02:50:54.243Z,9.50
2019-04-23T02:58:52.265Z,9.30
2019-04-23T03:01:21.752Z,9.30
2019-04-23T03:03:42.736Z,9.20
2019-04-23T03:11:20.019Z,9.00
2019-04-23T03:21:31.375Z,8.70
2019-04-23T03:24:04.447Z,8.60
2019-04-23T03:27:03.542Z,8.60
2019-04-23T03:29:16.253Z,8.60
2019-04-23T03:35:34.455Z,8.50
2019-04-23T03:37:03.978Z,8.40
2019-04-23T03:39:20.721Z,8.30
2019-04-23T03:41:41.755Z,8.20
2019-04-23T03:44:01.969Z,8.10
2019-04-23T03:46:53.923Z,8.10
2019-04-23T03:49:07.139Z,8.10
2019-04-23T03:51:43.320Z,8.20
2019-04-23T03:59:20.397Z,8.20
2019-04-23T04:02:04.347Z,8.20
2019-04-23T04:07:01.239Z,8.20
2019-04-23T04:11:47.626Z,8.30
2019-04-23T04:14:32.136Z,8.20
2019-04-23T04:22:06.852Z,8.30
2019-04-23T04:24:34.395Z,8.40
2019-04-23T04:27:07.968Z,8.50
2019-04-23T04:29:40.380Z,8.50
2019-04-23T04:32:00.335Z,8.50
2019-04-23T04:34:55.545Z,8.60
2019-04-23T04:39:33.515Z,8.70
2019-04-23T04:42:08.753Z,8.80
2019-04-23T04:44:43.281Z,8.80
2019-04-23T04:47:28.382Z,8.80
2019-04-23T04:52:22.251Z,8.90
2019-04-23T04:54:26.501Z,9.00
2019-04-23T04:57:20.429Z,9.10
2019-04-23T04:59:50.810Z,9.20
2019-04-23T05:02:26.384Z,9.20
2019-04-23T05:04:55.926Z,9.40
2019-04-23T05:07:23.512Z,9.50
2019-04-23T05:13:11.757Z,10.50
2019-04-23T05:17:24.401Z,11.70
2019-04-23T05:19:51.036Z,12.20
2019-04-23T05:22:22.592Z,12.70
2019-04-23T05:24:48.043Z,13.10
2019-04-23T05:27:17.577Z,13.60
2019-04-23T05:30:02.933Z,13.80
2019-04-23T05:32:23.730Z,13.80
2019-04-23T05:34:55.767Z,14.00
2019-04-23T05:37:35.176Z,14.20
2019-04-23T05:40:00.493Z,14.50
2019-04-23T05:42:26.099Z,14.80
2019-04-23T05:47:33.239Z,15.00
2019-04-23T05:50:09.420Z,15.20
2019-04-23T05:52:38.097Z,15.60
2019-04-23T05:55:07.620Z,15.60
2019-04-23T05:57:34.499Z,15.50
2019-04-23T06:00:13.863Z,15.00
2019-04-23T06:02:45.358Z,14.70
2019-04-23T06:05:08.858Z,14.50
2019-04-23T06:07:43.917Z,14.50
2019-04-23T06:10:13.267Z,14.70
2019-04-23T06:12:43.532Z,14.40
2019-04-23T06:15:11.480Z,14.30
2019-04-23T06:17:52.625Z,14.30
2019-04-23T06:20:22.506Z,14.10
2019-04-23T06:22:51.053Z,14.20
2019-04-23T06:25:30.818Z,14.00
2019-04-23T06:27:57.466Z,13.60
2019-04-23T06:30:25.715Z,13.70
2019-04-23T06:32:55.163Z,13.70
2019-04-23T06:35:22.556Z,13.50
2019-04-23T06:40:27.680Z,13.60
2019-04-23T06:43:01.017Z,13.70
2019-04-23T06:45:30.650Z,14.10
2019-04-23T06:48:09.007Z,14.00
2019-04-23T06:50:35.530Z,13.60
2019-04-23T06:53:01.913Z,13.50
2019-04-23T06:55:52.726Z,13.30
2019-04-23T06:58:25.441Z,13.30
2019-04-23T07:00:59.213Z,13.40
2019-04-23T07:03:33.997Z,13.60
2019-04-23T07:06:19.180Z,13.40
2019-04-23T07:11:23.627Z,13.90
2019-04-23T07:13:55.008Z,14.20
2019-04-23T07:16:19.241Z,14.60
2019-04-23T07:18:47.100Z,14.90
2019-04-23T07:26:30.418Z,15.50
2019-04-23T07:28:53.336Z,15.80
2019-04-23T07:31:44.492Z,15.80
2019-04-23T07:34:01.078Z,15.80
2019-04-23T07:36:30.852Z,16.00
2019-04-23T07:41:59.397Z,16.40
2019-04-23T07:47:18.699Z,16.80
2019-04-23T07:49:50.571Z,17.00
2019-04-23T07:52:20.293Z,17.60
2019-04-23T07:54:45.705Z,17.70
2019-04-23T07:57:29.202Z,17.90
2019-04-23T07:59:51.742Z,18.00
2019-04-23T08:02:21.858Z,18.20
2019-04-23T08:05:04.894Z,18.00
2019-04-23T08:07:23.123Z,18.30
2019-04-23T08:09:53.362Z,18.90
2019-04-23T08:12:25.586Z,19.10
2019-04-23T08:14:55.218Z,19.60
2019-04-23T08:17:22.426Z,20.00
2019-04-23T08:22:28.623Z,19.60
2019-04-23T08:27:35.318Z,19.20
2019-04-23T08:30:18.000Z,19.20
2019-04-23T08:32:29.203Z,19.10
2019-04-23T08:35:10.947Z,19.40
2019-04-23T08:37:54.457Z,19.50
2019-04-23T08:40:14.704Z,19.60
2019-04-23T08:45:29.782Z,20.10
2019-04-23T08:48:09.810Z,20.50
2019-04-23T08:53:17.932Z,20.10
2019-04-23T08:55:46.342Z,20.40
2019-04-23T08:58:14.190Z,20.50
2019-04-23T09:00:52.619Z,20.60
2019-04-23T09:03:21.986Z,20.50
2019-04-23T09:10:56.808Z,20.80
2019-04-23T09:18:22.965Z,21.20
2019-04-23T09:20:52.904Z,21.10
2019-04-23T09:23:29.380Z,21.00
2019-04-23T09:25:55.879Z,21.00
2019-04-23T09:28:38.651Z,20.90
2019-04-23T09:31:05.205Z,21.10
2019-04-23T09:33:51.751Z,21.40
2019-04-23T09:36:22.412Z,21.80
2019-04-23T09:38:52.481Z,21.90
2019-04-23T09:41:28.041Z,21.60
2019-04-23T09:44:14.574Z,21.60
2019-04-23T09:46:36.115Z,21.60
2019-04-23T09:49:15.219Z,21.20
2019-04-23T09:54:18.589Z,21.60
2019-04-23T09:56:44.341Z,21.80
2019-04-23T10:01:35.708Z,20.80
2019-04-23T10:04:03.966Z,20.60
2019-04-23T10:06:26.516Z,20.90
2019-04-23T10:08:56.223Z,21.20
2019-04-23T10:11:26.072Z,21.80
2019-04-23T10:13:56.580Z,22.50
2019-04-23T10:16:30.105Z,22.20
2019-04-23T10:18:57.536Z,21.90
2019-04-23T10:21:26.957Z,21.80
2019-04-23T10:23:57.089Z,21.50
2019-04-23T10:26:28.095Z,21.10
2019-04-23T10:29:02.312Z,21.10
2019-04-23T10:31:33.361Z,20.40
2019-04-23T10:34:04.426Z,19.90
2019-04-23T10:36:34.605Z,19.70
2019-04-23T10:39:17.106Z,19.50
2019-04-23T10:41:42.604Z,19.50
2019-04-23T10:44:15.234Z,20.00
2019-04-23T10:47:11.532Z,20.40
2019-04-23T10:52:19.103Z,20.90
2019-04-23T10:54:46.943Z,21.00
2019-04-23T10:57:16.702Z,20.90
2019-04-23T11:00:04.402Z,20.70
2019-04-23T11:02:43.511Z,20.60
2019-04-23T11:05:00.390Z,20.40
2019-04-23T11:25:26.586Z,20.90
2019-04-23T11:27:54.864Z,20.70
2019-04-23T11:33:05.108Z,20.80
2019-04-23T11:38:34.834Z,20.80
2019-04-23T11:43:14.719Z,20.60
2019-04-23T11:45:50.802Z,20.60
2019-04-23T11:48:33.290Z,20.60
2019-04-23T11:51:05.064Z,20.30
2019-04-23T11:53:07.169Z,20.20
2019-04-23T11:58:16.569Z,20.60
2019-04-23T12:00:49.237Z,20.70
2019-04-23T12:03:07.643Z,20.80
2019-04-23T12:11:46.858Z,20.80
2019-04-23T12:13:52.766Z,20.50
2019-04-23T12:16:20.557Z,20.50
2019-04-23T12:18:51.419Z,20.60
2019-04-23T12:21:33.077Z,20.60
2019-04-23T12:23:57.192Z,20.40
2019-04-23T12:26:29.849Z,20.00
2019-04-23T12:31:31.492Z,19.70
2019-04-23T12:34:01.050Z,19.60
2019-04-23T12:36:37.713Z,19.70
2019-04-23T12:39:05.364Z,19.80
2019-04-23T12:41:42.094Z,19.70
2019-04-23T12:44:10.926Z,19.80
2019-04-23T12:46:48.749Z,19.70
2019-04-23T12:49:30.357Z,19.70
2019-04-23T12:51:50.258Z,19.50
2019-04-23T12:54:20.039Z,19.50
2019-04-23T12:56:49.111Z,19.50
2019-04-23T12:59:14.685Z,19.50
2019-04-23T13:01:48.926Z,19.60
2019-04-23T13:04:22.196Z,19.80
2019-04-23T13:06:44.094Z,19.90
2019-04-23T13:09:38.291Z,20.00
2019-04-23T13:11:52.877Z,19.90
2019-04-23T13:14:29.427Z,20.00
2019-04-23T13:17:00.735Z,20.00
2019-04-23T13:19:37.418Z,20.20
2019-04-23T13:24:37.454Z,20.50
2019-04-23T13:27:15.827Z,20.50
2019-04-23T13:29:47.878Z,20.40
2019-04-23T13:32:17.314Z,20.60
2019-04-23T13:34:49.946Z,20.60
2019-04-23T13:37:19.046Z,20.50
2019-04-23T13:42:22.460Z,20.80
2019-04-23T13:44:49.946Z,21.00
2019-04-23T13:47:28.231Z,21.10
2019-04-23T13:49:55.263Z,20.80
2019-04-23T13:52:50.526Z,20.50
2019-04-23T13:55:04.518Z,20.50
2019-04-23T14:00:02.526Z,20.60
2019-04-23T14:02:35.733Z,20.60
2019-04-23T14:07:34.647Z,20.60
2019-04-23T14:10:06.075Z,20.60
2019-04-23T14:12:32.233Z,20.50
2019-04-23T14:17:48.953Z,20.80
2019-04-23T14:20:07.153Z,20.90
2019-04-23T14:25:10.186Z,20.50
2019-04-23T14:27:52.126Z,20.50
2019-04-23T14:32:46.950Z,20.50
2019-04-23T14:38:01.637Z,20.90
2019-04-23T14:42:56.770Z,21.30
2019-04-23T14:46:23.067Z,21.40
2019-04-23T14:48:03.976Z,21.30
2019-04-23T14:53:20.255Z,21.20
2019-04-23T14:55:58.016Z,21.20
2019-04-23T15:01:09.863Z,20.80
2019-04-23T15:03:40.305Z,20.60
2019-04-23T15:06:10.445Z,20.40
2019-04-23T15:08:32.083Z,20.30
2019-04-23T15:13:28.379Z,20.20
2019-04-23T15:16:11.484Z,20.30
2019-04-23T15:18:44.496Z,20.30
2019-04-23T15:24:00.210Z,20.30
2019-04-23T15:27:22.378Z,20.30
2019-04-23T15:28:37.257Z,20.40
2019-04-23T15:34:15.372Z,20.40
2019-04-23T15:39:11.811Z,20.80
2019-04-23T15:44:13.211Z,20.80
2019-04-23T15:46:48.960Z,20.80
2019-04-23T15:54:13.586Z,20.90
2019-04-23T15:56:45.946Z,21.00
2019-04-23T16:01:37.584Z,21.00
2019-04-23T16:03:47.251Z,21.00
2019-04-23T16:06:21.208Z,21.10
2019-04-23T16:09:08.060Z,21.10
2019-04-23T16:11:51.784Z,21.00
2019-04-23T16:19:25.813Z,20.80
2019-04-23T16:29:32.752Z,20.50
2019-04-23T16:32:08.469Z,20.50
2019-04-23T16:34:34.084Z,20.40
2019-04-23T16:37:15.360Z,20.40
2019-04-23T16:39:49.307Z,20.40
2019-04-23T16:42:17.533Z,20.30
2019-04-23T16:44:59.499Z,20.30
2019-04-23T16:47:18.638Z,20.30
2019-04-23T16:50:03.171Z,20.20
2019-04-23T16:52:21.577Z,20.10
2019-04-23T16:54:54.740Z,20.00
2019-04-23T16:57:35.698Z,19.90
2019-04-23T17:00:09.689Z,20.00
2019-04-23T17:02:28.028Z,19.90
2019-04-23T17:05:04.743Z,19.90
2019-04-23T17:07:22.151Z,19.90
2019-04-23T17:12:52.939Z,19.80
2019-04-23T17:15:05.379Z,19.80
2019-04-23T17:17:25.013Z,19.70
2019-04-23T17:20:08.886Z,19.80
2019-04-23T17:22:31.433Z,19.80
2019-04-23T17:25:13.407Z,19.80
2019-04-23T17:27:42.476Z,19.70
2019-04-23T17:30:11.479Z,19.60
2019-04-23T17:32:53.080Z,19.50
2019-04-23T17:35:27.438Z,19.40
2019-04-23T17:38:00.428Z,19.20
2019-04-23T17:40:42.549Z,19.20
2019-04-23T17:43:00.211Z,19.10
2019-04-23T17:48:07.139Z,19.00
2019-04-23T17:50:45.548Z,18.90
2019-04-23T17:55:54.251Z,18.70
2019-04-23T17:58:26.816Z,18.60
2019-04-23T18:01:04.031Z,18.60
2019-04-23T18:03:25.768Z,18.50
2019-04-23T18:06:08.793Z,18.40
2019-04-23T18:08:29.081Z,18.30
2019-04-23T18:11:05.944Z,18.20
2019-04-23T18:13:27.672Z,18.10
2019-04-23T18:16:08.449Z,18.00
2019-04-23T18:18:39.264Z,17.90
2019-04-23T18:21:13.213Z,17.80
2019-04-23T18:23:42.449Z,17.80
2019-04-23T18:26:22.327Z,17.70
2019-04-23T18:28:58.765Z,17.60
2019-04-23T18:31:20.110Z,17.50
2019-04-23T18:36:22.575Z,17.30
2019-04-23T18:39:06.344Z,17.10
2019-04-23T18:41:41.614Z,17.00
2019-04-23T18:44:05.831Z,17.00
2019-04-23T18:46:36.958Z,16.90
2019-04-23T18:48:59.915Z,16.80
2019-04-23T18:51:41.805Z,16.70
2019-04-23T18:54:05.427Z,16.60
2019-04-23T18:56:59.712Z,16.60
2019-04-23T18:59:10.710Z,16.40
2019-04-23T19:01:48.728Z,16.40
2019-04-23T19:04:55.003Z,16.30
2019-04-23T19:07:05.413Z,16.30
2019-04-23T19:10:12.264Z,16.20
2019-04-23T19:14:56.313Z,16.10
2019-04-23T19:19:54.998Z,16.00
2019-04-23T19:22:47.226Z,15.90
2019-04-23T19:24:53.389Z,15.90
2019-04-23T19:27:37.006Z,15.90
2019-04-23T19:30:18.872Z,15.80
2019-04-23T19:32:33.585Z,15.80
2019-04-23T19:35:07.057Z,15.70
2019-04-23T19:37:49.128Z,15.70
2019-04-23T19:40:03.388Z,15.60
2019-04-23T19:42:44.615Z,15.40
2019-04-23T19:45:04.898Z,15.30
2019-04-23T19:48:00.195Z,15.30
2019-04-23T19:50:15.150Z,15.30
2019-04-23T19:53:14.366Z,15.20
2019-04-23T19:55:29.827Z,15.10
2019-04-23T19:57:56.514Z,15.10
2019-04-23T20:00:20.167Z,15.00
2019-04-23T20:03:13.638Z,14.90
2019-04-23T20:05:24.696Z,14.80
2019-04-23T20:07:56.664Z,14.60
2019-04-23T20:10:26.615Z,14.50
2019-04-23T20:12:49.952Z,14.40
2019-04-23T20:15:31.961Z,14.40
2019-04-23T20:18:05.226Z,14.50
2019-04-23T20:28:14.899Z,14.70
2019-04-23T20:31:04.110Z,14.70
2019-04-23T20:36:03.707Z,14.80
2019-04-23T20:40:56.986Z,14.90
2019-04-23T20:43:23.678Z,14.90
2019-04-23T20:45:58.879Z,14.80
2019-04-23T20:48:37.805Z,14.90
2019-04-23T20:50:58.825Z,14.90
2019-04-23T20:53:30.988Z,14.80
2019-04-23T20:56:07.219Z,14.60
2019-04-23T20:58:55.617Z,14.60
2019-04-23T21:03:49.075Z,14.60
2019-04-23T21:06:18.865Z,14.70
2019-04-23T21:09:10.035Z,14.70
2019-04-23T21:11:25.035Z,14.70
2019-04-23T21:14:09.424Z,14.70
2019-04-23T21:19:10.612Z,14.70
2019-04-23T21:21:27.525Z,14.60
2019-04-23T21:23:53.231Z,14.60
2019-04-23T21:26:32.470Z,14.60
2019-04-23T21:29:02.598Z,14.70
2019-04-23T21:31:43.822Z,14.60
2019-04-23T21:36:50.950Z,14.60
2019-04-23T21:39:47.995Z,14.50
2019-04-23T21:42:14.820Z,14.50
2019-04-23T21:44:45.623Z,14.50
2019-04-23T21:47:42.581Z,14.50
2019-04-23T21:49:59.443Z,14.50
2019-04-23T21:52:20.499Z,14.50
2019-04-23T21:54:49.608Z,14.50
2019-04-23T21:57:29.518Z,14.50
2019-04-23T22:02:47.142Z,14.60
2019-04-23T22:05:01.040Z,14.60
2019-04-23T22:07:35.679Z,14.60
2019-04-23T22:10:05.937Z,14.60
2019-04-23T22:12:23.135Z,14.70
2019-04-23T22:14:58.781Z,14.60
2019-04-23T22:17:33.079Z,14.60
2019-04-23T22:22:41.844Z,14.50
2019-04-23T22:25:04.449Z,14.50
2019-04-23T22:27:41.134Z,14.50
2019-04-23T22:30:02.966Z,14.50
2019-04-23T22:32:49.733Z,14.60
2019-04-23T22:35:08.007Z,14.50
2019-04-23T22:37:42.818Z,14.50
2019-04-23T22:40:10.218Z,14.40
2019-04-23T22:43:01.311Z,14.40
2019-04-23T22:50:18.596Z,14.60
2019-04-23T22:52:56.813Z,14.60
2019-04-23T22:55:12.703Z,14.60
2019-04-23T23:00:34.037Z,14.70
2019-04-23T23:03:13.332Z,14.70
2019-04-23T23:05:53.911Z,14.70
2019-04-23T23:08:11.418Z,14.70
2019-04-23T23:10:37.347Z,14.70
2019-04-23T23:15:42.057Z,14.70
2019-04-23T23:18:14.074Z,14.70
2019-04-23T23:20:51.219Z,14.70
2019-04-23T23:23:19.482Z,14.80
2019-04-23T23:25:51.561Z,14.70
2019-04-23T23:28:20.129Z,14.70
2019-04-23T23:30:58.344Z,14.60
2019-04-23T23:33:19.240Z,14.50
2019-04-23T23:35:53.548Z,14.60
2019-04-23T23:38:29.256Z,14.60
2019-04-23T23:41:03.732Z,14.70
2019-04-23T23:43:24.160Z,14.70
2019-04-23T23:46:03.610Z,14.70
2019-04-23T23:48:28.041Z,14.70
2019-04-23T23:51:09.972Z,14.70
2019-04-23T23:53:39.771Z,14.70
2019-04-23T23:56:11.250Z,14.60
2019-04-23T23:58:48.239Z,14.50
